Time;durP1;ratioP1;P1;durP2;ratioP2;P2;SDS_P1;SDS_P2;PMS_P1;PMS_P2;Temp;Humidity;BMP_temperature;BMP_pressure;BME280_temperature;BME280_humidity;BME280_pressure;Samples;Min_cycle;Max_cycle;Signal;HPM_P1;HPM_P2
2022/11/28 00:00:44;;;;;;;8.50;6.05;;;6.70;99.90;;;;;;5072223;28;20408;-59
2022/11/28 00:03:11;;;;;;;9.90;6.18;;;6.70;99.90;;;;;;5072017;28;20882;-59
2022/11/28 00:05:37;;;;;;;8.73;6.18;;;6.60;99.90;;;;;;5071630;28;20462;-59
2022/11/28 00:08:04;;;;;;;8.57;6.40;;;6.50;99.90;;;;;;5071781;28;20844;-59
2022/11/28 00:10:31;;;;;;;8.03;5.97;;;6.50;99.90;;;;;;5072277;28;20469;-59
2022/11/28 00:12:58;;;;;;;10.57;6.13;;;6.60;99.90;;;;;;5063351;28;20902;-59
2022/11/28 00:15:26;;;;;;;9.93;5.85;;;6.70;99.90;;;;;;5056277;28;20417;-59
2022/11/28 00:17:52;;;;;;;8.95;5.82;;;6.60;99.90;;;;;;5051591;28;20421;-59
2022/11/28 00:20:19;;;;;;;9.85;5.90;;;6.60;99.90;;;;;;5051650;28;20486;-59
2022/11/28 00:22:45;;;;;;;9.88;6.63;;;6.60;99.90;;;;;;5051548;28;21081;-59
2022/11/28 00:25:12;;;;;;;10.43;6.90;;;6.60;99.90;;;;;;5051456;28;20916;-59
2022/11/28 00:27:39;;;;;;;8.77;6.35;;;6.50;99.90;;;;;;5051615;28;20404;-59
2022/11/28 00:30:07;;;;;;;8.98;6.18;;;6.60;99.90;;;;;;5051765;28;20417;-59
2022/11/28 00:32:35;;;;;;;8.52;6.15;;;6.60;99.90;;;;;;5051355;28;20950;-59
2022/11/28 00:35:01;;;;;;;9.73;6.15;;;6.50;99.90;;;;;;5051388;28;20793;-59
2022/11/28 00:37:28;;;;;;;8.85;5.78;;;6.50;99.90;;;;;;5050967;28;20429;-59
2022/11/28 00:39:55;;;;;;;9.23;6.13;;;6.50;99.90;;;;;;5051261;28;20448;-59
2022/11/28 00:42:21;;;;;;;9.02;6.40;;;6.60;99.90;;;;;;5058109;28;20416;-59
2022/11/28 00:44:48;;;;;;;9.20;6.38;;;6.60;99.90;;;;;;5062973;28;20638;-58
2022/11/28 00:47:16;;;;;;;9.20;6.50;;;6.50;99.90;;;;;;5070980;28;20869;-59
2022/11/28 00:49:43;;;;;;;8.60;5.90;;;6.60;99.90;;;;;;5071080;28;20412;-59
2022/11/28 00:52:10;;;;;;;10.52;6.32;;;6.60;99.90;;;;;;5070970;28;20419;-59
2022/11/28 00:54:37;;;;;;;10.15;6.18;;;6.60;99.90;;;;;;5070988;28;20423;-58
2022/11/28 00:57:04;;;;;;;11.30;6.50;;;6.60;99.90;;;;;;5070957;28;20445;-58
2022/11/28 00:59:31;;;;;;;9.95;6.55;;;6.60;99.90;;;;;;5071214;28;20467;-56
2022/11/28 01:01:57;;;;;;;9.27;6.10;;;6.50;99.90;;;;;;5070873;28;20438;-58
2022/11/28 01:04:26;;;;;;;8.73;6.30;;;6.50;99.90;;;;;;5070634;28;20420;-59
2022/11/28 01:06:56;;;;;;;9.45;6.38;;;6.60;99.90;;;;;;5070426;28;20414;-57
2022/11/28 01:09:24;;;;;;;10.13;6.32;;;6.60;99.90;;;;;;5071092;28;20796;-58
2022/11/28 01:11:52;;;;;;;8.98;6.47;;;6.60;99.90;;;;;;5068450;28;20469;-56
2022/11/28 01:14:20;;;;;;;9.40;6.38;;;6.60;99.90;;;;;;5058834;28;20417;-57
2022/11/28 01:16:46;;;;;;;8.10;6.03;;;6.60;99.90;;;;;;5050574;28;20429;-58
2022/11/28 01:19:13;;;;;;;12.23;6.50;;;6.70;99.90;;;;;;5050382;28;20973;-58
2022/11/28 01:21:40;;;;;;;9.00;6.50;;;6.70;99.90;;;;;;5050492;28;20417;-57
2022/11/28 01:24:09;;;;;;;9.77;6.35;;;6.70;99.90;;;;;;5050650;28;20419;-58
2022/11/28 01:26:38;;;;;;;9.10;6.68;;;6.60;99.90;;;;;;5050473;28;20794;-55
2022/11/28 01:29:05;;;;;;;9.70;6.40;;;6.60;99.90;;;;;;5050290;28;20421;-59
2022/11/28 01:31:32;;;;;;;9.70;6.68;;;6.60;99.90;;;;;;5050522;28;20413;-57
2022/11/28 01:33:58;;;;;;;9.70;6.18;;;6.60;99.90;;;;;;5049581;28;20757;-58
2022/11/28 01:36:26;;;;;;;10.00;6.18;;;6.70;99.90;;;;;;5050384;28;20429;-59
2022/11/28 01:38:52;;;;;;;9.80;6.47;;;6.70;99.90;;;;;;5050178;28;20420;-59
2022/11/28 01:41:24;;;;;;;8.55;6.38;;;6.60;99.90;;;;;;5050622;28;20417;-58
2022/11/28 01:43:59;;;;;;;9.38;6.15;;;6.70;99.90;;;;;;5061027;28;20421;-58
2022/11/28 01:46:26;;;;;;;10.00;6.78;;;6.70;99.90;;;;;;5070107;28;20404;-54
2022/11/28 01:48:54;;;;;;;8.77;6.37;;;6.60;99.90;;;;;;5070110;28;20422;-58
2022/11/28 01:51:21;;;;;;;7.35;6.07;;;6.60;99.90;;;;;;5070377;28;20420;-58
2022/11/28 01:53:48;;;;;;;8.98;6.65;;;6.60;99.90;;;;;;5070416;28;20419;-59
2022/11/28 01:56:20;;;;;;;8.32;7.00;;;6.60;99.90;;;;;;5069983;28;20829;-59
2022/11/28 01:58:51;;;;;;;9.75;6.57;;;6.60;99.90;;;;;;5070139;28;20422;-59
2022/11/28 02:01:20;;;;;;;10.00;6.88;;;6.60;99.90;;;;;;5070133;28;20898;-58
2022/11/28 02:03:49;;;;;;;8.57;6.25;;;6.60;99.90;;;;;;5069966;28;20419;-58
2022/11/28 02:06:18;;;;;;;10.70;7.00;;;6.70;99.90;;;;;;5069703;28;20408;-58
2022/11/28 02:08:45;;;;;;;10.20;7.20;;;6.60;99.90;;;;;;5070156;28;20461;-58
2022/11/28 02:11:34;;;;;;;9.57;7.15;;;6.50;99.90;;;;;;5070118;28;20411;-59
2022/11/28 02:14:13;;;;;;;8.33;5.57;;;6.50;99.90;;;;;;5059293;28;20672;-59
2022/11/28 02:16:54;;;;;;;9.17;6.10;;;6.50;99.90;;;;;;5051067;28;20225;-59
2022/11/28 02:19:51;;;;;;;7.37;4.67;;;6.50;99.90;;;;;;5051067;28;20223;-58
2022/11/28 02:22:23;;;;;;;8.67;6.40;;;6.50;99.90;;;;;;5043073;28;20201;-59
2022/11/28 02:25:14;;;;;;;4.73;3.23;;;6.40;99.90;;;;;;5051149;28;20236;-58
2022/11/28 02:28:16;;;;;;;10.73;5.50;;;6.40;99.90;;;;;;5050957;28;20222;-59
2022/11/28 02:30:57;;;;;;;5.60;3.97;;;6.40;99.90;;;;;;5051171;28;20357;-58
2022/11/28 02:33:30;;;;;;;7.47;5.30;;;6.40;99.90;;;;;;5051040;28;20220;-59
2022/11/28 02:36:08;;;;;;;9.03;5.57;;;6.50;99.90;;;;;;5050695;28;20236;-59
2022/11/28 02:38:49;;;;;;;7.73;4.87;;;6.40;99.90;;;;;;5050887;28;20218;-59
2022/11/28 02:41:26;;;;;;;9.20;5.07;;;6.40;99.90;;;;;;5051301;28;20189;-59
2022/11/28 02:43:57;;;;;;;9.37;5.57;;;6.40;99.90;;;;;;5061901;28;20436;-59
2022/11/28 02:46:30;;;;;;;9.70;5.73;;;6.50;99.90;;;;;;5073601;28;20192;-59
2022/11/28 02:49:01;;;;;;;7.70;5.50;;;6.40;99.90;;;;;;5074666;28;20215;-58
2022/11/28 02:51:34;;;;;;;8.77;5.83;;;6.40;99.90;;;;;;5074627;28;20678;-58
2022/11/28 02:54:03;;;;;;;8.70;5.43;;;6.40;99.90;;;;;;5075006;28;20188;-58
2022/11/28 02:56:30;;;;;;;6.40;4.70;;;6.50;99.90;;;;;;5074348;28;20231;-58
2022/11/28 02:58:56;;;;;;;7.57;5.60;;;6.50;99.90;;;;;;5074427;28;20210;-58
2022/11/28 03:01:27;;;;;;;8.73;5.30;;;6.50;99.90;;;;;;5074375;28;20217;-58
2022/11/28 03:04:12;;;;;;;7.10;4.63;;;6.50;99.90;;;;;;5074418;28;20580;-58
2022/11/28 03:06:49;;;;;;;8.60;4.90;;;6.50;99.90;;;;;;5074440;28;20196;-59
2022/11/28 03:09:37;;;;;;;11.97;5.83;;;6.60;99.90;;;;;;5074544;28;20210;-59
2022/11/28 03:12:15;;;;;;;9.73;6.37;;;6.50;99.90;;;;;;5070100;28;20620;-58
2022/11/28 03:14:49;;;;;;;7.40;5.10;;;6.50;99.90;;;;;;5062361;28;20224;-58
2022/11/28 03:17:21;;;;;;;9.30;5.77;;;6.50;99.90;;;;;;5054329;28;20211;-58
2022/11/28 03:19:56;;;;;;;9.90;5.10;;;6.50;99.90;;;;;;5054097;28;20207;-58
2022/11/28 03:22:30;;;;;;;8.20;5.27;;;6.50;99.90;;;;;;5054112;28;20562;-59
2022/11/28 03:25:02;;;;;;;9.57;5.27;;;6.50;99.90;;;;;;5054253;28;20306;-58
2022/11/28 03:27:34;;;;;;;9.57;5.63;;;6.50;99.90;;;;;;5053946;28;20206;-59
2022/11/28 03:30:06;;;;;;;5.67;4.70;;;6.50;99.90;;;;;;5053804;28;20209;-59
2022/11/28 03:32:36;;;;;;;7.93;5.57;;;6.50;99.90;;;;;;5053786;28;20754;-59
2022/11/28 03:35:09;;;;;;;8.20;5.10;;;6.50;99.90;;;;;;5053841;28;20236;-59
2022/11/28 03:37:39;;;;;;;7.73;5.00;;;6.50;99.90;;;;;;5053548;28;20229;-59
2022/11/28 03:40:11;;;;;;;8.30;5.67;;;6.50;99.90;;;;;;5053532;28;20204;-59
2022/11/28 03:42:42;;;;;;;9.43;5.17;;;6.50;99.90;;;;;;5061663;28;20238;-59
2022/11/28 03:45:13;;;;;;;7.67;5.27;;;6.50;99.90;;;;;;5066580;28;20271;-58
2022/11/28 03:47:43;;;;;;;8.93;5.83;;;6.50;99.90;;;;;;5073285;28;20666;-59
2022/11/28 03:50:16;;;;;;;7.43;5.17;;;6.40;99.90;;;;;;5073197;28;20672;-59
2022/11/28 03:52:48;;;;;;;10.40;5.50;;;6.40;99.90;;;;;;5073816;28;20580;-58
2022/11/28 03:55:22;;;;;;;7.00;4.97;;;6.50;99.90;;;;;;5073610;28;20274;-58
2022/11/28 03:57:53;;;;;;;8.80;5.40;;;6.50;99.90;;;;;;5072855;28;20284;-59
2022/11/28 04:00:21;;;;;;;7.93;5.37;;;6.50;99.90;;;;;;5073419;28;20207;-59
2022/11/28 04:02:54;;;;;;;7.97;5.27;;;6.50;99.90;;;;;;5073525;28;20215;-59
2022/11/28 04:05:27;;;;;;;7.20;5.43;;;6.50;99.90;;;;;;5072971;28;20227;-61
2022/11/28 04:07:58;;;;;;;7.33;5.27;;;6.50;99.90;;;;;;5073033;28;20247;-59
2022/11/28 04:10:31;;;;;;;8.73;4.80;;;6.50;99.90;;;;;;5073251;28;20211;-58
2022/11/28 04:13:05;;;;;;;8.30;5.37;;;6.50;99.90;;;;;;5064875;28;20517;-59
2022/11/28 04:15:37;;;;;;;6.90;5.30;;;6.50;99.90;;;;;;5056846;28;20222;-59
2022/11/28 04:18:18;;;;;;;7.43;5.20;;;6.50;99.90;;;;;;5052841;28;20318;-59
2022/11/28 04:20:51;;;;;;;7.47;4.97;;;6.50;99.90;;;;;;5053008;28;20251;-59
2022/11/28 04:23:19;;;;;;;7.10;5.37;;;6.50;99.90;;;;;;5052771;28;20208;-59
2022/11/28 04:25:52;;;;;;;8.20;5.17;;;6.50;99.90;;;;;;5053052;28;20227;-59
2022/11/28 04:28:24;;;;;;;5.73;4.17;;;6.50;99.90;;;;;;5052883;28;20209;-59
2022/11/28 04:30:52;;;;;;;5.87;4.27;;;6.60;99.90;;;;;;5053078;28;20212;-58
2022/11/28 04:33:22;;;;;;;7.60;4.43;;;6.60;99.90;;;;;;5052815;28;20641;-57
2022/11/28 04:35:53;;;;;;;5.80;4.53;;;6.50;99.90;;;;;;5053017;28;20233;-59
2022/11/28 04:38:23;;;;;;;6.57;4.83;;;6.50;99.90;;;;;;5052628;28;20225;-56
2022/11/28 04:40:54;;;;;;;6.63;4.57;;;6.50;99.90;;;;;;5053035;28;20212;-59
2022/11/28 04:43:26;;;;;;;6.40;5.03;;;6.60;99.90;;;;;;5061511;28;20196;-59
2022/11/28 04:45:56;;;;;;;5.87;4.40;;;6.60;99.90;;;;;;5071386;28;20278;-57
2022/11/28 04:48:23;;;;;;;7.90;5.43;;;6.50;99.90;;;;;;5072651;28;20290;-59
2022/11/28 04:50:59;;;;;;;6.57;4.10;;;6.50;99.90;;;;;;5072531;28;20209;-58
2022/11/28 04:53:33;;;;;;;6.73;5.03;;;6.50;99.90;;;;;;5072422;28;20207;-57
2022/11/28 04:56:04;;;;;;;5.83;4.37;;;6.60;99.90;;;;;;5071945;28;20227;-57
2022/11/28 04:58:35;;;;;;;12.43;4.83;;;6.60;99.90;;;;;;5072426;28;20219;-58
2022/11/28 05:01:06;;;;;;;6.87;4.20;;;6.60;99.90;;;;;;5072413;28;20208;-59
2022/11/28 05:03:33;;;;;;;6.10;4.30;;;6.60;99.90;;;;;;5071795;28;20758;-58
2022/11/28 05:06:03;;;;;;;8.13;4.70;;;6.70;99.90;;;;;;5071909;28;20300;-56
2022/11/28 05:08:30;;;;;;;7.30;4.53;;;6.70;99.90;;;;;;5071206;28;20290;-54
2022/11/28 05:10:56;;;;;;;5.77;3.77;;;6.70;99.90;;;;;;5072241;28;20205;-57
2022/11/28 05:13:23;;;;;;;6.83;4.57;;;6.70;96.80;;;;;;5063744;28;20581;-58
2022/11/28 05:15:50;;;;;;;7.13;4.40;;;6.60;98.90;;;;;;5053162;28;20286;-59
2022/11/28 05:18:16;;;;;;;9.53;4.57;;;6.70;91.80;;;;;;5051750;28;20232;-59
2022/11/28 05:20:43;;;;;;;5.30;3.80;;;6.70;97.10;;;;;;5051963;28;20217;-58
2022/11/28 05:23:11;;;;;;;6.93;4.50;;;6.70;98.40;;;;;;5051742;28;20251;-59
2022/11/28 05:25:38;;;;;;;7.77;4.73;;;6.70;85.50;;;;;;5052000;28;20228;-59
2022/11/28 05:28:06;;;;;;;7.13;4.33;;;6.70;92.30;;;;;;5051624;28;20298;-59
2022/11/28 05:30:32;;;;;;;6.80;4.23;;;6.70;99.90;;;;;;5052148;28;20209;-59
2022/11/28 05:32:59;;;;;;;6.20;4.03;;;6.70;97.70;;;;;;5051875;28;20661;-59
2022/11/28 05:35:26;;;;;;;8.50;4.83;;;6.70;99.10;;;;;;5051288;28;20692;-59
2022/11/28 05:37:52;;;;;;;6.73;5.07;;;6.70;92.30;;;;;;5051200;28;20231;-59
2022/11/28 05:40:20;;;;;;;6.70;5.07;;;6.70;90.20;;;;;;5051614;28;20771;-59
2022/11/28 05:42:47;;;;;;;8.07;5.10;;;6.80;70.40;;;;;;5053054;28;20252;-59
2022/11/28 05:45:14;;;;;;;8.50;4.87;;;6.80;73.80;;;;;;5056598;28;20229;-56
2022/11/28 05:47:40;;;;;;;6.90;4.70;;;6.80;67.40;;;;;;5061872;28;20203;-59
2022/11/28 05:50:08;;;;;;;7.77;5.77;;;6.80;67.10;;;;;;5058963;28;20623;-57
2022/11/28 05:52:34;;;;;;;7.47;4.83;;;6.70;74.70;;;;;;5052074;28;20203;-59
2022/11/28 05:55:01;;;;;;;8.87;4.40;;;6.80;71.90;;;;;;5058759;28;20228;-60
2022/11/28 05:57:31;;;;;;;7.23;4.83;;;6.80;72.10;;;;;;5051168;28;20233;-58
2022/11/28 05:59:57;;;;;;;6.60;4.40;;;6.80;74.30;;;;;;5051047;28;20205;-59
2022/11/28 06:02:25;;;;;;;9.60;5.27;;;6.70;74.10;;;;;;5051119;28;20206;-59
2022/11/28 06:04:51;;;;;;;6.83;4.63;;;6.70;82.70;;;;;;5050351;28;20229;-60
2022/11/28 06:07:18;;;;;;;9.40;5.10;;;6.70;87.90;;;;;;5051204;28;20227;-59
2022/11/28 06:09:45;;;;;;;10.00;5.80;;;6.70;84.70;;;;;;5051261;28;20559;-58
2022/11/28 06:12:12;;;;;;;8.27;4.63;;;6.60;93.00;;;;;;5056151;28;20663;-60
2022/11/28 06:14:40;;;;;;;8.83;4.20;;;6.70;92.90;;;;;;5062563;28;20229;-59
2022/11/28 06:17:07;;;;;;;9.30;4.67;;;6.70;94.70;;;;;;5070481;28;20210;-59
2022/11/28 06:19:33;;;;;;;7.37;4.43;;;6.80;92.80;;;;;;5072718;28;20262;-59
2022/11/28 06:22:00;;;;;;;6.73;4.70;;;6.70;90.60;;;;;;5075103;28;20216;-57
2022/11/28 06:24:27;;;;;;;7.13;4.63;;;6.70;91.80;;;;;;5074445;28;20231;-60
2022/11/28 06:26:54;;;;;;;7.97;4.80;;;6.70;90.70;;;;;;5063251;28;20267;-61
2022/11/28 06:29:20;;;;;;;5.47;4.20;;;6.70;91.10;;;;;;5061284;28;20209;-60
2022/11/28 06:31:48;;;;;;;6.77;4.47;;;6.70;85.10;;;;;;5065939;28;20592;-60
2022/11/28 06:34:15;;;;;;;6.67;4.77;;;6.70;86.10;;;;;;5074664;28;20284;-60
2022/11/28 06:36:43;;;;;;;7.30;4.87;;;6.70;82.00;;;;;;5074308;28;20206;-61
2022/11/28 06:39:12;;;;;;;9.27;4.93;;;6.70;84.70;;;;;;5074657;28;20648;-61
2022/11/28 06:41:39;;;;;;;6.70;4.90;;;6.70;79.90;;;;;;5073758;28;20212;-61
2022/11/28 06:44:06;;;;;;;5.80;4.60;;;6.70;75.80;;;;;;5062245;28;20683;-61
2022/11/28 06:46:32;;;;;;;7.03;4.97;;;6.60;80.00;;;;;;5061927;28;20696;-61
2022/11/28 06:49:00;;;;;;;7.43;4.87;;;6.60;78.60;;;;;;5062524;28;20239;-61
2022/11/28 06:51:27;;;;;;;8.70;5.27;;;6.60;79.20;;;;;;5062767;28;20251;-61
2022/11/28 06:53:54;;;;;;;7.50;4.90;;;6.60;80.10;;;;;;5060331;28;20205;-60
2022/11/28 06:56:21;;;;;;;6.93;5.03;;;6.60;67.50;;;;;;5065899;28;20257;-60
2022/11/28 06:58:54;;;;;;;7.43;4.90;;;6.60;69.10;;;;;;5073808;28;20231;-60
2022/11/28 07:01:23;;;;;;;8.27;5.50;;;6.60;64.50;;;;;;5074543;28;20969;-60
2022/11/28 07:03:50;;;;;;;8.67;5.40;;;6.60;55.60;;;;;;5073705;28;20223;-60
2022/11/28 07:06:19;;;;;;;6.47;4.80;;;6.60;56.60;;;;;;5065622;28;20292;-59
2022/11/28 07:08:46;;;;;;;7.57;4.83;;;6.60;48.20;;;;;;5063581;28;20203;-62
2022/11/28 07:11:14;;;;;;;9.87;5.30;;;6.70;44.20;;;;;;5067784;28;20227;-63
2022/11/28 07:13:42;;;;;;;7.17;5.37;;;6.70;45.10;;;;;;5064079;28;20211;-64
2022/11/28 07:16:13;;;;;;;10.37;5.33;;;6.60;49.00;;;;;;5061740;28;20304;-62
2022/11/28 07:18:40;;;;;;;8.63;5.23;;;6.60;44.50;;;;;;5053629;28;20710;-62
2022/11/28 07:21:07;;;;;;;7.43;5.67;;;6.60;40.00;;;;;;5053679;28;20211;-60
2022/11/28 07:23:35;;;;;;;8.63;5.43;;;6.60;38.20;;;;;;5053905;28;20607;-60
2022/11/28 07:26:03;;;;;;;8.73;4.87;;;6.60;41.50;;;;;;5055346;28;20233;-61
2022/11/28 07:28:30;;;;;;;7.50;5.27;;;6.60;43.80;;;;;;5065495;28;20193;-63
2022/11/28 07:31:02;;;;;;;7.97;4.93;;;6.60;44.60;;;;;;5052799;28;20581;-61
2022/11/28 07:33:29;;;;;;;8.27;6.10;;;6.60;43.10;;;;;;5053717;28;20212;-61
2022/11/28 07:36:00;;;;;;;8.47;5.10;;;6.60;39.40;;;;;;5052989;28;20240;-62
2022/11/28 07:38:27;;;;;;;8.83;5.73;;;6.60;43.00;;;;;;5053325;28;20233;-61
2022/11/28 07:40:55;;;;;;;9.60;6.00;;;6.60;47.60;;;;;;5061512;28;20278;-61
2022/11/28 07:43:22;;;;;;;10.57;5.67;;;6.60;43.00;;;;;;5068674;28;20213;-60
2022/11/28 07:45:48;;;;;;;8.83;4.90;;;6.60;34.40;;;;;;5061416;28;20222;-60
2022/11/28 07:48:15;;;;;;;8.03;5.40;;;6.70;37.10;;;;;;5061477;28;20208;-60
2022/11/28 07:50:42;;;;;;;10.47;5.07;;;6.70;27.80;;;;;;5063320;28;20204;-60
2022/11/28 07:53:08;;;;;;;8.37;5.13;;;6.70;30.30;;;;;;5052806;28;20216;-61
2022/11/28 07:55:36;;;;;;;10.37;6.00;;;6.70;30.70;;;;;;5053543;28;20239;-62
2022/11/28 07:58:04;;;;;;;8.93;4.80;;;6.80;22.10;;;;;;5056905;28;20221;-62
2022/11/28 08:00:31;;;;;;;8.43;5.00;;;6.80;18.70;;;;;;5065519;28;20209;-62
2022/11/28 08:02:58;;;;;;;11.37;5.43;;;6.70;19.20;;;;;;5062331;28;20205;-62
2022/11/28 08:05:25;;;;;;;8.83;5.83;;;6.70;20.70;;;;;;5060902;28;20789;-61
2022/11/28 08:07:51;;;;;;;9.00;5.43;;;6.70;22.80;;;;;;5052383;28;20699;-61
2022/11/28 08:10:18;;;;;;;10.47;5.70;;;6.70;25.00;;;;;;5053447;28;20319;-61
2022/11/28 08:12:45;;;;;;;7.60;4.73;;;6.70;19.90;;;;;;5060852;28;20578;-62
2022/11/28 08:15:13;;;;;;;8.03;5.43;;;6.80;22.20;;;;;;5052652;28;20256;-60
2022/11/28 08:17:39;;;;;;;12.00;6.10;;;6.80;17.90;;;;;;5052289;28;20261;-59
2022/11/28 08:20:08;;;;;;;8.57;5.83;;;6.80;25.00;;;;;;5052735;28;20286;-59
2022/11/28 08:22:34;;;;;;;9.30;5.57;;;6.80;30.60;;;;;;5052609;28;20208;-59
2022/11/28 08:25:01;;;;;;;8.67;5.37;;;6.80;25.00;;;;;;5052374;28;20229;-59
2022/11/28 08:27:28;;;;;;;9.43;6.00;;;6.80;28.40;;;;;;5052428;28;20204;-60
2022/11/28 08:29:54;;;;;;;9.13;5.77;;;6.80;30.40;;;;;;5052400;28;20206;-62
2022/11/28 08:32:23;;;;;;;9.47;5.33;;;6.90;31.30;;;;;;5052640;28;20202;-62
2022/11/28 08:34:49;;;;;;;9.57;5.80;;;6.80;37.40;;;;;;5052070;28;20320;-61
2022/11/28 08:37:16;;;;;;;8.00;5.67;;;6.80;41.10;;;;;;5052039;28;20226;-62
2022/11/28 08:39:42;;;;;;;7.57;5.33;;;6.90;43.80;;;;;;5051801;28;20229;-60
2022/11/28 08:42:09;;;;;;;8.53;6.03;;;6.90;47.70;;;;;;5057265;28;20205;-62
2022/11/28 08:44:36;;;;;;;7.40;5.23;;;6.90;50.30;;;;;;5063352;28;20238;-62
2022/11/28 08:47:03;;;;;;;8.03;5.53;;;6.90;53.80;;;;;;5063571;28;20663;-63
2022/11/28 08:49:31;;;;;;;8.10;5.80;;;6.90;65.30;;;;;;5055434;28;20194;-62
2022/11/28 08:51:58;;;;;;;6.60;4.83;;;7.00;61.00;;;;;;5055341;28;20207;-61
2022/11/28 08:54:24;;;;;;;9.93;5.57;;;7.00;61.70;;;;;;5063736;28;20605;-63
2022/11/28 08:56:51;;;;;;;9.73;5.47;;;7.00;61.20;;;;;;5071294;28;20256;-63
2022/11/28 08:59:18;;;;;;;10.90;5.93;;;7.00;67.50;;;;;;5072354;28;20228;-57
2022/11/28 09:01:44;;;;;;;7.67;5.37;;;7.00;69.20;;;;;;5071568;28;20211;-59
2022/11/28 09:04:11;;;;;;;8.27;6.07;;;7.00;85.10;;;;;;5055859;28;20233;-60
2022/11/28 09:06:39;;;;;;;9.97;5.90;;;7.10;86.70;;;;;;5059403;28;20212;-62
2022/11/28 09:09:07;;;;;;;8.40;5.47;;;7.10;91.70;;;;;;5071622;28;20208;-61
2022/11/28 09:11:35;;;;;;;9.07;5.60;;;7.10;83.00;;;;;;5071021;28;20239;-60
2022/11/28 09:14:01;;;;;;;8.63;4.63;;;7.20;89.00;;;;;;5059351;28;20288;-58
2022/11/28 09:16:28;;;;;;;7.93;4.50;;;7.20;91.50;;;;;;5056929;28;20262;-61
2022/11/28 09:18:56;;;;;;;7.67;4.83;;;7.30;93.60;;;;;;5059740;28;20246;-60
2022/11/28 09:21:23;;;;;;;10.70;5.10;;;7.30;81.90;;;;;;5055788;28;20287;-60
2022/11/28 09:23:54;;;;;;;6.67;4.70;;;7.30;80.00;;;;;;5058035;28;20206;-61
2022/11/28 09:26:23;;;;;;;7.33;4.60;;;7.40;79.80;;;;;;5051179;28;20217;-62
2022/11/28 09:28:49;;;;;;;6.27;4.67;;;7.40;86.40;;;;;;5050825;28;20210;-62
2022/11/28 09:31:18;;;;;;;7.13;5.10;;;7.50;82.80;;;;;;5050855;28;20244;-62
2022/11/28 09:33:46;;;;;;;6.73;4.57;;;7.50;69.90;;;;;;5050754;28;20312;-62
2022/11/28 09:36:15;;;;;;;7.90;5.13;;;7.60;69.30;;;;;;5050844;28;20229;-62
2022/11/28 09:38:42;;;;;;;6.63;4.20;;;7.60;75.70;;;;;;5050718;28;20226;-62
2022/11/28 09:41:31;;;;;;;8.83;5.03;;;7.60;81.20;;;;;;5050731;28;20210;-60
2022/11/28 09:44:02;;;;;;;6.70;4.80;;;7.60;76.60;;;;;;5061998;28;20208;-60
2022/11/28 09:46:32;;;;;;;6.87;5.13;;;7.60;90.40;;;;;;5061901;28;20209;-59
2022/11/28 09:49:02;;;;;;;7.27;4.70;;;7.60;70.70;;;;;;5062364;28;20201;-59
2022/11/28 09:51:35;;;;;;;8.93;5.23;;;7.70;96.30;;;;;;5062249;28;20205;-59
2022/11/28 09:54:08;;;;;;;8.70;5.37;;;7.70;95.40;;;;;;5057205;28;20695;-60
2022/11/28 09:56:37;;;;;;;9.87;4.70;;;7.70;95.60;;;;;;5066845;28;20200;-61
2022/11/28 09:59:05;;;;;;;8.57;4.90;;;7.70;91.80;;;;;;5070934;28;20698;-61
2022/11/28 10:01:40;;;;;;;8.97;5.37;;;7.70;92.60;;;;;;5071387;28;20264;-65
2022/11/28 10:04:12;;;;;;;6.33;4.83;;;7.60;95.70;;;;;;5069996;28;20211;-64
2022/11/28 10:06:44;;;;;;;8.00;4.60;;;7.70;99.90;;;;;;5059012;28;20293;-64
2022/11/28 10:09:23;;;;;;;6.17;4.23;;;7.70;99.90;;;;;;5057457;28;20193;-64
2022/11/28 10:12:05;;;;;;;8.60;4.93;;;7.80;97.80;;;;;;5061507;28;20224;-61
2022/11/28 10:15:05;;;;;;;6.97;4.77;;;7.70;98.00;;;;;;5061018;28;20220;-61
2022/11/28 10:17:41;;;;;;;7.00;5.03;;;7.70;99.90;;;;;;5058386;28;20202;-61
2022/11/28 10:20:13;;;;;;;7.30;4.80;;;7.70;96.40;;;;;;5050711;28;20325;-61
2022/11/28 10:22:46;;;;;;;8.03;5.30;;;7.70;99.90;;;;;;5051104;28;20240;-63
2022/11/28 10:25:17;;;;;;;7.23;5.50;;;7.70;99.90;;;;;;5050247;28;20225;-61
2022/11/28 10:27:46;;;;;;;6.30;4.53;;;7.70;99.90;;;;;;5050504;28;20296;-61
2022/11/28 10:30:20;;;;;;;8.30;5.70;;;7.70;99.90;;;;;;5050671;28;20214;-59
2022/11/28 10:32:55;;;;;;;8.73;5.33;;;7.60;99.90;;;;;;5050957;28;20267;-62
2022/11/28 10:35:28;;;;;;;7.97;5.57;;;7.70;99.90;;;;;;5057668;28;20252;-58
2022/11/28 10:37:54;;;;;;;9.20;5.67;;;7.70;99.90;;;;;;5061249;28;20209;-59
2022/11/28 10:40:30;;;;;;;7.23;5.00;;;7.70;99.90;;;;;;5062694;28;20221;-59
2022/11/28 10:43:03;;;;;;;7.20;4.97;;;7.70;99.90;;;;;;5054057;28;20863;-61
2022/11/28 10:45:43;;;;;;;7.20;5.23;;;7.70;99.90;;;;;;5058624;28;20565;-62
2022/11/28 10:48:21;;;;;;;8.77;5.43;;;7.70;99.90;;;;;;5057628;28;20227;-60
2022/11/28 10:50:53;;;;;;;9.07;5.53;;;7.70;99.90;;;;;;5058238;28;20254;-59
2022/11/28 10:53:30;;;;;;;8.70;5.57;;;7.70;99.90;;;;;;5050204;28;20251;-59
2022/11/28 10:56:08;;;;;;;8.03;4.77;;;7.70;99.90;;;;;;5053710;28;20216;-59
2022/11/28 10:58:42;;;;;;;11.13;5.60;;;7.70;99.90;;;;;;5053657;28;20221;-58
2022/11/28 11:01:10;;;;;;;8.23;5.87;;;7.70;99.90;;;;;;5062650;28;20200;-62
2022/11/28 11:03:39;;;;;;;8.17;5.87;;;7.70;99.90;;;;;;5070287;28;20196;-59
2022/11/28 11:06:06;;;;;;;10.77;6.00;;;7.70;99.90;;;;;;5071226;28;20224;-61
2022/11/28 11:08:35;;;;;;;13.83;6.23;;;7.70;99.90;;;;;;5074113;28;20664;-62
2022/11/28 11:11:05;;;;;;;9.33;5.67;;;7.60;99.90;;;;;;5066175;28;20197;-62
2022/11/28 11:13:33;;;;;;;8.37;5.53;;;7.70;99.90;;;;;;5065896;28;20205;-62
2022/11/28 11:16:05;;;;;;;9.03;5.67;;;7.70;99.90;;;;;;5061706;28;20217;-62
2022/11/28 11:18:35;;;;;;;13.53;6.00;;;7.80;99.90;;;;;;5062670;28;20222;-61
2022/11/28 11:21:15;;;;;;;8.97;5.70;;;7.80;99.90;;;;;;5061751;28;20312;-61
2022/11/28 11:23:42;;;;;;;9.53;6.23;;;7.80;99.90;;;;;;5070461;28;20212;-60
2022/11/28 11:26:20;;;;;;;10.07;5.90;;;7.80;99.90;;;;;;5053514;28;20226;-60
2022/11/28 11:28:49;;;;;;;8.80;5.77;;;7.80;99.90;;;;;;5054203;28;20190;-60
2022/11/28 11:31:23;;;;;;;11.40;6.77;;;7.80;99.90;;;;;;5053584;28;20854;-60
2022/11/28 11:33:53;;;;;;;10.03;6.10;;;7.80;99.90;;;;;;5053372;28;20208;-67
2022/11/28 11:36:24;;;;;;;9.60;6.40;;;7.70;99.90;;;;;;5053172;28;20267;-68
2022/11/28 11:38:51;;;;;;;10.57;6.07;;;7.80;99.90;;;;;;5053492;28;20221;-67
2022/11/28 11:41:29;;;;;;;10.13;6.90;;;7.80;99.90;;;;;;5053699;28;20581;-67
2022/11/28 11:43:56;;;;;;;8.93;5.77;;;7.90;99.90;;;;;;5059527;28;20236;-67
2022/11/28 11:46:24;;;;;;;12.47;7.10;;;8.00;99.90;;;;;;5061157;28;20198;-61
2022/11/28 11:48:52;;;;;;;10.90;6.57;;;7.90;99.90;;;;;;5061481;28;20205;-62
2022/11/28 11:51:25;;;;;;;14.37;6.90;;;7.80;99.90;;;;;;5060590;28;20201;-61
2022/11/28 11:54:04;;;;;;;11.23;6.03;;;7.80;99.90;;;;;;5053744;28;20201;-61
2022/11/28 11:56:35;;;;;;;9.60;7.10;;;7.90;99.90;;;;;;5053271;28;20205;-60
2022/11/28 11:59:05;;;;;;;12.20;7.27;;;7.90;99.90;;;;;;5052974;28;20206;-61
2022/11/28 12:01:34;;;;;;;10.53;6.80;;;7.90;99.90;;;;;;5053002;28;20555;-59
2022/11/28 12:04:05;;;;;;;10.03;7.00;;;8.00;99.90;;;;;;5052604;28;20209;-60
2022/11/28 12:06:37;;;;;;;11.27;7.47;;;7.90;99.90;;;;;;5052586;28;20202;-60
2022/11/28 12:09:16;;;;;;;11.53;7.00;;;7.90;99.90;;;;;;5053009;28;20202;-60
2022/11/28 12:11:49;;;;;;;12.03;7.47;;;8.00;99.90;;;;;;5057632;28;20228;-61
2022/11/28 12:14:27;;;;;;;15.93;7.67;;;8.00;99.90;;;;;;5064085;28;20312;-63
2022/11/28 12:17:08;;;;;;;13.47;8.17;;;7.90;99.90;;;;;;5071816;28;20672;-62
2022/11/28 12:19:44;;;;;;;12.13;7.17;;;7.80;99.90;;;;;;5072673;28;20714;-62
2022/11/28 12:22:18;;;;;;;12.73;7.33;;;7.80;99.90;;;;;;5068521;28;20780;-61
2022/11/28 12:24:54;;;;;;;10.67;7.23;;;7.80;99.90;;;;;;5052504;28;20249;-62
2022/11/28 12:27:34;;;;;;;12.20;8.20;;;7.80;99.90;;;;;;5052237;28;20210;-62
2022/11/28 12:30:19;;;;;;;11.27;7.80;;;7.80;99.90;;;;;;5060304;28;20198;-61
2022/11/28 12:32:57;;;;;;;13.43;7.27;;;7.80;99.90;;;;;;5070375;28;20205;-58
2022/11/28 12:35:31;;;;;;;12.33;7.70;;;7.80;99.90;;;;;;5071831;28;20784;-66
2022/11/28 12:38:07;;;;;;;13.30;8.23;;;7.70;99.90;;;;;;5063830;28;20855;-54
2022/11/28 12:40:40;;;;;;;12.27;7.70;;;7.70;99.90;;;;;;5063726;28;20224;-62
2022/11/28 12:43:25;;;;;;;12.67;8.13;;;7.70;99.90;;;;;;5059805;28;20197;-61
2022/11/28 12:45:59;;;;;;;14.90;7.80;;;7.70;99.90;;;;;;5061401;28;20267;-62
2022/11/28 12:48:39;;;;;;;14.07;8.97;;;7.70;99.90;;;;;;5063156;28;20249;-60
2022/11/28 12:51:19;;;;;;;15.37;8.50;;;7.70;99.90;;;;;;5071869;28;20258;-59
2022/11/28 12:53:58;;;;;;;11.63;8.40;;;7.80;99.90;;;;;;5063806;28;20208;-59
2022/11/28 12:56:47;;;;;;;11.77;8.37;;;7.70;99.90;;;;;;5056558;28;20652;-62
2022/11/28 12:59:21;;;;;;;12.60;8.77;;;7.80;99.90;;;;;;5062598;28;20615;-60
2022/11/28 13:02:14;;;;;;;11.77;8.77;;;7.80;99.90;;;;;;5059014;28;20900;-59
2022/11/28 13:05:03;;;;;;;11.83;7.80;;;7.70;99.90;;;;;;5063414;28;20221;-59
2022/11/28 13:07:41;;;;;;;11.97;8.50;;;7.70;99.90;;;;;;5071159;28;20216;-60
2022/11/28 13:10:13;;;;;;;12.10;8.30;;;7.80;99.90;;;;;;5071810;28;20623;-59
2022/11/28 13:12:47;;;;;;;12.63;8.30;;;7.80;99.90;;;;;;5062334;28;20590;-58